createdAt,value
2022-11-25T06:14:00.129Z,10.20
2022-11-25T06:27:05.785Z,10.20
2022-11-25T06:36:41.315Z,7.60
2022-11-25T07:02:54.261Z,7.90
2022-11-25T07:09:41.427Z,16.00
2022-11-25T08:15:48.984Z,67.80
2022-11-25T08:25:28.449Z,72.53
2022-11-25T08:37:59.745Z,52.17
2022-11-25T08:53:51.319Z,17.77
2022-11-25T08:57:30.680Z,14.30
2022-11-25T09:28:25.461Z,16.27
2022-11-25T09:30:57.023Z,7.10
2022-11-25T09:33:24.889Z,8.85
2022-11-25T09:35:52.637Z,15.85
2022-11-25T09:38:20.734Z,16.65
2022-11-25T09:40:48.223Z,12.38
2022-11-25T09:47:16.743Z,9.63
2022-11-25T09:50:04.007Z,14.27
2022-11-25T09:53:01.143Z,9.38
2022-11-25T09:55:36.108Z,7.45
2022-11-25T09:58:17.119Z,15.10
2022-11-25T10:00:48.175Z,9.45
2022-11-25T10:03:41.350Z,4.45
2022-11-25T10:06:21.387Z,4.13
2022-11-25T10:08:55.808Z,8.05
2022-11-25T10:11:34.636Z,9.73
2022-11-25T10:14:12.402Z,10.45
2022-11-25T10:16:51.918Z,7.65
2022-11-25T10:19:40.905Z,12.60
2022-11-25T10:22:29.050Z,7.65
2022-11-25T10:25:03.252Z,7.15
2022-11-25T10:27:40.874Z,12.75
2022-11-25T10:30:36.598Z,8.82
2022-11-25T10:33:21.490Z,10.48
2022-11-25T10:35:55.081Z,10.70
2022-11-25T10:38:39.671Z,9.95
2022-11-25T10:41:09.865Z,7.72
2022-11-25T10:43:38.679Z,11.88
2022-11-25T10:46:18.637Z,16.10
2022-11-25T10:48:52.717Z,10.10
2022-11-25T10:51:37.460Z,13.48
2022-11-25T10:54:27.243Z,10.43
2022-11-25T10:57:20.874Z,12.10
2022-11-25T10:59:58.213Z,6.05
2022-11-25T11:02:30.899Z,11.38
2022-11-25T11:05:06.800Z,7.80
2022-11-25T11:07:40.209Z,7.57
2022-11-25T11:10:17.590Z,9.25
2022-11-25T11:13:06.621Z,9.02
2022-11-25T11:15:54.835Z,8.50
2022-11-25T11:18:37.582Z,9.18
2022-11-25T11:21:23.708Z,11.80
2022-11-25T11:23:54.241Z,8.63
2022-11-25T11:26:28.543Z,9.40
2022-11-25T11:29:17.247Z,9.57
2022-11-25T11:31:49.353Z,20.65
2022-11-25T11:35:01.431Z,17.85
2022-11-25T11:37:53.174Z,13.85
2022-11-25T11:40:30.031Z,10.45
2022-11-25T11:43:35.647Z,15.82
2022-11-25T11:46:24.861Z,13.95
2022-11-25T11:48:55.490Z,6.75
2022-11-25T11:51:37.381Z,15.95
2022-11-25T11:54:08.190Z,9.50
2022-11-25T11:56:36.490Z,7.93
2022-11-25T11:59:25.778Z,12.55
2022-11-25T12:01:59.963Z,18.45
2022-11-25T12:04:51.435Z,12.60
2022-11-25T12:07:42.200Z,9.73
2022-11-25T12:10:35.423Z,7.05
2022-11-25T12:13:34.702Z,9.20
2022-11-25T12:16:17.454Z,7.82
2022-11-25T12:18:45.321Z,7.20
2022-11-25T12:21:38.779Z,9.57
2022-11-25T12:24:31.733Z,8.90
2022-11-25T12:27:34.206Z,12.77
2022-11-25T12:30:07.575Z,7.90
2022-11-25T12:33:13.061Z,10.13
2022-11-25T12:35:43.886Z,12.60
2022-11-25T12:38:23.532Z,6.90
2022-11-25T12:41:15.054Z,10.50
2022-11-25T12:44:14.904Z,9.73
2022-11-25T12:46:56.553Z,8.57
2022-11-25T12:49:32.765Z,11.35
2022-11-25T12:52:10.423Z,13.23
2022-11-25T12:54:56.381Z,6.53
2022-11-25T12:57:36.462Z,11.40
2022-11-25T13:00:42.338Z,10.75
2022-11-25T13:03:52.320Z,9.55
2022-11-25T13:06:55.066Z,9.80
2022-11-25T13:10:04.405Z,14.20
2022-11-25T13:12:41.701Z,9.45
2022-11-25T13:15:33.615Z,7.43
2022-11-25T13:18:09.653Z,8.52
2022-11-25T13:20:51.491Z,11.93
2022-11-25T13:23:19.826Z,10.52
2022-11-25T13:25:50.090Z,14.77
2022-11-25T13:28:33.473Z,14.43
2022-11-25T13:31:21.230Z,9.93
2022-11-25T13:33:49.061Z,11.00
2022-11-25T13:36:22.838Z,12.85
2022-11-25T13:38:50.777Z,13.90
2022-11-25T13:41:24.748Z,6.35
2022-11-25T13:44:11.117Z,12.07
2022-11-25T13:46:46.758Z,13.68
2022-11-25T13:49:31.598Z,12.52
2022-11-25T13:52:11.248Z,12.77
2022-11-25T13:55:00.343Z,11.35
2022-11-25T13:57:35.997Z,12.75
2022-11-25T14:00:10.252Z,8.75
2022-11-25T14:02:45.892Z,19.50
2022-11-25T14:05:48.720Z,17.65
2022-11-25T14:08:55.706Z,13.70
2022-11-25T14:11:51.221Z,6.07
2022-11-25T14:15:10.493Z,15.70
2022-11-25T14:17:47.452Z,10.45
2022-11-25T14:20:15.109Z,12.57
2022-11-25T14:23:16.089Z,14.88
2022-11-25T14:28:23.993Z,9.65
2022-11-25T14:30:54.811Z,9.18
2022-11-25T14:33:34.350Z,16.40
2022-11-25T14:36:26.470Z,9.48
2022-11-25T14:39:00.449Z,8.32
2022-11-25T14:41:38.596Z,16.63
2022-11-25T14:44:12.959Z,13.40
2022-11-25T14:46:58.121Z,9.70
2022-11-25T14:49:55.422Z,14.95
2022-11-25T14:52:34.448Z,15.85
2022-11-25T14:55:05.514Z,13.55
2022-11-25T14:57:36.793Z,17.85
2022-11-25T15:00:17.005Z,11.35
2022-11-25T15:02:58.153Z,12.82
2022-11-25T15:05:37.528Z,10.20
2022-11-25T15:08:08.318Z,12.35
2022-11-25T15:10:54.697Z,17.48
2022-11-25T15:13:32.688Z,13.88
2022-11-25T15:16:19.788Z,7.40
2022-11-25T15:18:56.119Z,10.35
2022-11-25T15:21:48.344Z,13.82
2022-11-25T15:24:30.307Z,11.60
2022-11-25T15:27:02.990Z,12.77
2022-11-25T15:29:40.365Z,5.88
2022-11-25T15:32:14.479Z,6.85
2022-11-25T15:34:43.437Z,8.27
2022-11-25T15:37:12.320Z,6.20
2022-11-25T15:39:40.731Z,5.18
2022-11-25T15:42:27.131Z,13.32
2022-11-25T15:45:09.998Z,7.47
2022-11-25T15:47:37.835Z,7.15
2022-11-25T15:50:18.511Z,13.98
2022-11-25T15:52:49.671Z,12.00
2022-11-25T15:55:39.560Z,16.30
2022-11-25T15:58:22.021Z,9.30
2022-11-25T16:01:06.934Z,8.98
2022-11-25T16:03:35.660Z,7.80
2022-11-25T16:06:20.915Z,9.00
2022-11-25T16:09:00.234Z,10.02
2022-11-25T16:11:33.531Z,12.25
2022-11-25T16:14:28.975Z,15.70
2022-11-25T16:17:02.244Z,10.15
2022-11-25T16:19:37.967Z,15.35
2022-11-25T16:22:06.711Z,10.73
2022-11-25T16:24:48.687Z,7.00
2022-11-25T16:27:25.997Z,13.45
2022-11-25T16:29:55.107Z,14.70
2022-11-25T16:32:28.694Z,10.82
2022-11-25T16:35:00.356Z,14.68
2022-11-25T16:37:27.994Z,7.88
2022-11-25T16:39:55.613Z,4.90
2022-11-25T16:42:23.262Z,22.77
2022-11-25T16:44:52.418Z,5.22
2022-11-25T16:47:21.821Z,8.82
2022-11-25T16:49:49.562Z,8.38
2022-11-25T16:52:17.342Z,12.07
2022-11-25T16:54:46.196Z,10.02
2022-11-25T16:57:20.335Z,10.80
2022-11-25T16:59:54.334Z,8.18
2022-11-25T17:02:25.414Z,8.25
2022-11-25T17:04:53.190Z,6.40
2022-11-25T17:07:38.605Z,10.52
2022-11-25T17:10:07.458Z,8.68
2022-11-25T17:12:36.895Z,6.82
2022-11-25T17:15:08.000Z,8.13
2022-11-25T17:17:37.409Z,5.05
2022-11-25T17:20:06.564Z,10.95
2022-11-25T17:22:39.100Z,9.95
2022-11-25T17:25:07.524Z,9.05
2022-11-25T17:27:35.141Z,11.23
2022-11-25T17:30:06.563Z,15.00
2022-11-25T17:32:34.917Z,7.70
2022-11-25T17:35:02.450Z,10.90
2022-11-25T17:37:31.148Z,9.45
2022-11-25T17:39:58.848Z,8.90
2022-11-25T17:42:39.585Z,4.65
2022-11-25T17:45:13.672Z,13.55
2022-11-25T17:47:43.156Z,4.18
2022-11-25T17:50:23.229Z,9.52
2022-11-25T17:57:02.690Z,4.70
2022-11-25T19:30:41.054Z,8.63
2022-11-25T19:33:27.640Z,15.02
2022-11-25T19:35:55.199Z,4.97
2022-11-25T19:38:26.169Z,6.43
2022-11-25T19:40:55.461Z,3.72
2022-11-25T19:43:27.025Z,9.48
2022-11-25T19:45:57.027Z,8.85
2022-11-25T19:48:28.618Z,8.35
2022-11-25T19:51:05.880Z,9.80
2022-11-25T19:53:34.936Z,10.18
2022-11-25T19:56:06.160Z,6.43
2022-11-25T19:58:35.111Z,1.90
2022-11-25T20:01:06.354Z,7.90
2022-11-25T20:03:35.255Z,7.07
2022-11-25T20:06:05.985Z,8.23
2022-11-25T20:08:33.674Z,4.22
2022-11-25T20:11:02.097Z,6.57
2022-11-25T20:13:30.029Z,13.00
2022-11-25T20:15:58.977Z,9.48
2022-11-25T20:18:33.701Z,8.85
2022-11-25T20:21:10.546Z,5.22
2022-11-25T20:23:44.227Z,9.02
2022-11-25T20:26:36.872Z,8.98
2022-11-25T20:29:17.401Z,9.98
2022-11-25T20:31:47.490Z,8.18
2022-11-25T20:34:16.353Z,12.40
2022-11-25T20:36:45.059Z,9.50
2022-11-25T21:13:09.703Z,11.27
2022-11-25T21:33:03.680Z,7.15
2022-11-25T21:35:37.931Z,12.35
2022-11-25T21:38:22.286Z,12.93
2022-11-25T21:40:57.262Z,11.27
2022-11-25T21:43:33.873Z,28.50
2022-11-25T21:46:07.284Z,23.05
2022-11-25T21:49:07.812Z,16.23
2022-11-25T21:51:35.835Z,14.77
2022-11-25T21:54:07.492Z,13.85
2022-11-25T21:56:36.475Z,9.38
2022-11-25T22:00:13.969Z,18.05
2022-11-25T22:10:29.911Z,11.02
2022-11-25T22:12:57.818Z,8.25
2022-11-25T23:01:49.512Z,12.40
2022-11-25T23:04:21.005Z,14.90
2022-11-25T23:06:51.106Z,10.98
2022-11-25T23:09:23.574Z,16.48
2022-11-25T23:11:53.230Z,14.50
2022-11-25T23:26:13.903Z,11.23
2022-11-25T23:28:41.723Z,9.60
2022-11-25T23:31:18.024Z,15.73
2022-11-25T23:33:48.802Z,11.32
2022-11-25T23:39:22.260Z,10.32
2022-11-25T23:41:50.209Z,10.88
2022-11-25T23:44:29.006Z,9.70
2022-11-25T23:47:06.667Z,11.50
2022-11-25T23:49:38.916Z,14.80
2022-11-25T23:59:40.645Z,15.43
